Time;durP1;ratioP1;P1;durP2;ratioP2;P2;SDS_P1;SDS_P2;PMS_P1;PMS_P2;Temp;Humidity;BMP_temperature;BMP_pressure;BME280_temperature;BME280_humidity;BME280_pressure;Samples;Min_cycle;Max_cycle;Signal;HPM_P1;HPM_P2
2023/05/20 00:01:36;;;;;;;;;;;;;;;14.01;64.29;98165.81;5091384;28;19934;-55
2023/05/20 00:04:04;;;;;;;;;;;;;;;14.09;64.82;98174.00;5084300;28;20034;-54
2023/05/20 00:06:33;;;;;;;;;;;;;;;14.07;64.31;98162.59;5088466;28;19947;-56
2023/05/20 00:09:02;;;;;;;;;;;;;;;14.15;64.18;98166.41;5090795;28;20380;-56
2023/05/20 00:11:31;;;;;;;;;;;;;;;14.11;64.37;98162.72;5089820;28;19970;-55
2023/05/20 00:13:59;;;;;;;;;;;;;;;14.08;64.67;98161.47;5091138;28;20004;-56
2023/05/20 00:16:26;;;;;;;;;;;;;;;14.08;64.79;98156.00;5087404;28;19935;-53
2023/05/20 00:18:55;;;;;;;;;;;;;;;14.20;64.48;98157.25;5091432;28;19935;-55
2023/05/20 00:21:23;;;;;;;;;;;;;;;14.24;64.29;98163.66;5085117;28;19941;-55
2023/05/20 00:23:51;;;;;;;;;;;;;;;14.27;64.42;98154.78;5090014;28;19931;-54
2023/05/20 00:26:18;;;;;;;;;;;;;;;14.33;64.01;98158.97;5090937;28;19992;-56
2023/05/20 00:28:53;;;;;;;;;;;;;;;14.33;64.11;98165.22;5083243;28;19938;-54
2023/05/20 00:31:23;;;;;;;;;;;;;;;14.23;64.51;98153.88;5089377;28;19945;-55
2023/05/20 00:33:51;;;;;;;;;;;;;;;14.25;64.48;98162.53;5085889;28;19934;-54
2023/05/20 00:36:19;;;;;;;;;;;;;;;14.14;64.84;98162.88;5086833;28;20033;-55
2023/05/20 00:38:47;;;;;;;;;;;;;;;14.15;64.85;98158.22;5089542;28;20025;-54
2023/05/20 00:41:15;;;;;;;;;;;;;;;14.21;64.70;98153.38;5085154;28;20013;-56
2023/05/20 00:43:43;;;;;;;;;;;;;;;14.26;64.81;98151.25;5091876;28;19934;-55
2023/05/20 00:46:13;;;;;;;;;;;;;;;14.31;64.70;98159.28;5080595;28;19985;-54
2023/05/20 00:48:41;;;;;;;;;;;;;;;14.19;64.83;98152.91;5083595;28;20276;-54
2023/05/20 00:51:10;;;;;;;;;;;;;;;14.42;64.30;98155.03;5080083;28;19935;-56
2023/05/20 00:53:37;;;;;;;;;;;;;;;14.23;64.84;98154.66;5087767;28;19935;-54
2023/05/20 00:56:06;;;;;;;;;;;;;;;14.24;64.88;98163.66;5077789;28;19977;-55
2023/05/20 00:58:35;;;;;;;;;;;;;;;14.15;65.13;98153.56;5077144;28;19966;-54
2023/05/20 01:01:04;;;;;;;;;;;;;;;14.11;65.38;98147.16;5078564;28;19989;-55
2023/05/20 01:03:34;;;;;;;;;;;;;;;14.14;65.26;98146.50;5088023;28;19986;-54
2023/05/20 01:06:02;;;;;;;;;;;;;;;14.09;65.62;98140.41;5086467;28;19931;-54
2023/05/20 01:08:30;;;;;;;;;;;;;;;14.14;65.89;98140.22;5084452;28;19931;-54
2023/05/20 01:11:01;;;;;;;;;;;;;;;14.23;65.24;98138.25;5088221;28;20010;-55
2023/05/20 01:13:30;;;;;;;;;;;;;;;14.14;65.54;98143.75;5089882;28;19939;-57
2023/05/20 01:15:57;;;;;;;;;;;;;;;14.24;65.58;98145.31;5081874;28;20423;-56
2023/05/20 01:18:29;;;;;;;;;;;;;;;14.35;65.10;98145.75;5083429;28;19948;-55
2023/05/20 01:21:00;;;;;;;;;;;;;;;14.18;65.51;98129.47;5080668;28;19935;-55
2023/05/20 01:23:33;;;;;;;;;;;;;;;14.19;65.46;98133.78;5075500;28;20327;-55
2023/05/20 01:26:01;;;;;;;;;;;;;;;14.16;65.47;98127.81;5087306;28;20391;-56
2023/05/20 01:28:29;;;;;;;;;;;;;;;14.29;65.32;98130.69;5078553;28;19943;-55
2023/05/20 01:31:00;;;;;;;;;;;;;;;14.16;65.64;98122.38;5103915;28;21270;-56
2023/05/20 01:33:28;;;;;;;;;;;;;;;14.16;66.00;98127.03;5122885;27;19938;-55
2023/05/20 01:35:56;;;;;;;;;;;;;;;14.07;66.24;98127.09;5083579;28;19978;-57
2023/05/20 01:38:24;;;;;;;;;;;;;;;14.06;66.08;98125.50;5082120;28;19980;-56
2023/05/20 01:40:54;;;;;;;;;;;;;;;14.10;66.37;98128.34;5086811;28;19974;-55
2023/05/20 01:43:21;;;;;;;;;;;;;;;14.05;66.46;98126.59;5079992;28;19937;-57
2023/05/20 01:45:49;;;;;;;;;;;;;;;14.14;66.07;98121.91;5081519;28;19934;-55
2023/05/20 01:48:17;;;;;;;;;;;;;;;14.14;66.27;98118.38;5120493;27;19947;-56
2023/05/20 01:50:47;;;;;;;;;;;;;;;14.08;66.18;98117.75;5086774;28;19939;-57
2023/05/20 01:53:16;;;;;;;;;;;;;;;14.16;66.26;98122.38;5083987;28;20291;-57
2023/05/20 01:55:44;;;;;;;;;;;;;;;14.10;66.23;98118.22;5090889;28;19934;-55
2023/05/20 01:58:13;;;;;;;;;;;;;;;14.11;66.35;98119.84;5086507;28;19935;-56
2023/05/20 02:00:41;;;;;;;;;;;;;;;14.02;66.47;98127.28;5101725;28;19980;-57
2023/05/20 02:03:10;;;;;;;;;;;;;;;13.97;66.83;98124.72;5092357;28;19941;-56
2023/05/20 02:05:38;;;;;;;;;;;;;;;14.03;66.81;98114.41;5092231;28;19936;-57
2023/05/20 02:08:06;;;;;;;;;;;;;;;14.08;66.70;98108.78;5081128;28;20053;-56
2023/05/20 02:10:34;;;;;;;;;;;;;;;14.06;66.51;98111.00;5091102;28;19935;-56
2023/05/20 02:13:02;;;;;;;;;;;;;;;14.08;66.00;98104.09;5088565;28;20361;-55
2023/05/20 02:15:31;;;;;;;;;;;;;;;13.97;66.56;98097.41;5093586;28;19941;-56
2023/05/20 02:17:59;;;;;;;;;;;;;;;14.01;66.62;98103.00;5106490;28;19935;-55
2023/05/20 02:20:27;;;;;;;;;;;;;;;14.11;66.49;98108.91;5083611;28;20238;-56
2023/05/20 02:22:55;;;;;;;;;;;;;;;13.98;66.35;98109.94;5105001;28;20007;-56
2023/05/20 02:25:23;;;;;;;;;;;;;;;13.84;66.90;98099.22;5088126;28;19920;-58
2023/05/20 02:27:50;;;;;;;;;;;;;;;13.84;66.87;98104.69;5101999;28;20281;-55
2023/05/20 02:30:20;;;;;;;;;;;;;;;13.79;67.18;98099.41;5102704;28;19974;-55
2023/05/20 02:32:49;;;;;;;;;;;;;;;13.78;67.20;98099.72;5099765;28;19935;-54
2023/05/20 02:35:17;;;;;;;;;;;;;;;13.79;66.97;98098.59;5086799;28;19931;-55
2023/05/20 02:37:47;;;;;;;;;;;;;;;13.80;67.38;98098.28;5097739;27;19939;-54
2023/05/20 02:40:15;;;;;;;;;;;;;;;13.68;67.57;98100.09;5121896;27;19934;-54
2023/05/20 02:42:43;;;;;;;;;;;;;;;13.55;67.74;98101.91;5100121;28;19934;-54
2023/05/20 02:45:11;;;;;;;;;;;;;;;13.62;67.96;98108.47;5089032;28;19934;-54
2023/05/20 02:47:39;;;;;;;;;;;;;;;13.75;67.49;98108.59;5087760;28;19928;-54
2023/05/20 02:50:10;;;;;;;;;;;;;;;13.55;68.08;98104.63;5081098;28;19934;-54
2023/05/20 02:52:41;;;;;;;;;;;;;;;13.56;68.04;98112.50;5084139;28;19920;-55
2023/05/20 02:55:09;;;;;;;;;;;;;;;13.49;68.43;98108.69;5125960;27;19920;-54
2023/05/20 02:57:37;;;;;;;;;;;;;;;13.47;68.60;98116.38;5085230;28;20400;-55
2023/05/20 03:00:10;;;;;;;;;;;;;;;13.36;68.89;98107.72;5121541;27;20431;-56
2023/05/20 03:02:38;;;;;;;;;;;;;;;13.42;69.03;98114.59;5093458;28;20259;-59
2023/05/20 03:05:07;;;;;;;;;;;;;;;13.39;68.88;98118.00;5084957;28;19935;-54
2023/05/20 03:07:37;;;;;;;;;;;;;;;13.47;68.60;98103.53;5116738;27;19947;-54
2023/05/20 03:10:06;;;;;;;;;;;;;;;13.39;68.81;98104.34;5091366;28;19958;-54
2023/05/20 03:12:34;;;;;;;;;;;;;;;13.38;68.97;98112.88;5115451;27;19987;-54
2023/05/20 03:15:02;;;;;;;;;;;;;;;13.38;68.92;98112.88;5090318;28;19974;-54
2023/05/20 03:17:30;;;;;;;;;;;;;;;13.32;69.09;98129.41;5114623;27;20283;-55
2023/05/20 03:19:58;;;;;;;;;;;;;;;13.35;69.29;98127.97;5078810;28;19959;-54
2023/05/20 03:22:26;;;;;;;;;;;;;;;13.42;68.92;98124.72;5115625;27;19962;-54
2023/05/20 03:24:55;;;;;;;;;;;;;;;13.34;68.97;98118.97;5085833;28;19978;-55
2023/05/20 03:27:25;;;;;;;;;;;;;;;13.38;69.02;98124.59;5060876;28;19928;-57
2023/05/20 03:29:55;;;;;;;;;;;;;;;13.33;69.08;98125.56;5084196;28;20295;-54
2023/05/20 03:32:24;;;;;;;;;;;;;;;13.31;69.28;98127.00;5107843;28;19950;-56
2023/05/20 03:34:53;;;;;;;;;;;;;;;13.27;69.42;98118.69;5090737;28;19942;-54
2023/05/20 03:37:21;;;;;;;;;;;;;;;13.35;69.08;98120.56;5087981;28;19981;-55
2023/05/20 03:39:49;;;;;;;;;;;;;;;13.50;68.86;98132.91;5088441;28;19980;-55
2023/05/20 03:42:19;;;;;;;;;;;;;;;13.33;69.27;98136.47;5090124;28;20314;-55
2023/05/20 03:44:47;;;;;;;;;;;;;;;13.37;69.23;98133.91;5116244;27;19942;-54
2023/05/20 03:47:16;;;;;;;;;;;;;;;13.44;68.97;98134.22;5112890;27;19969;-55
2023/05/20 03:49:44;;;;;;;;;;;;;;;13.50;68.99;98126.66;5089976;28;20380;-54
2023/05/20 03:52:12;;;;;;;;;;;;;;;13.37;69.28;98131.19;5114408;27;19955;-55
2023/05/20 03:54:40;;;;;;;;;;;;;;;13.35;69.20;98125.22;5091190;28;19957;-58
2023/05/20 03:57:09;;;;;;;;;;;;;;;13.38;69.42;98119.13;5084254;28;19939;-54
2023/05/20 03:59:38;;;;;;;;;;;;;;;13.45;69.02;98127.63;5079151;28;19939;-57
2023/05/20 04:02:08;;;;;;;;;;;;;;;13.40;69.05;98130.53;5108821;27;20372;-60
2023/05/20 04:04:36;;;;;;;;;;;;;;;13.54;68.96;98122.94;5089211;28;19970;-57
2023/05/20 04:07:04;;;;;;;;;;;;;;;13.52;69.03;98119.72;5080406;28;20358;-57
2023/05/20 04:09:33;;;;;;;;;;;;;;;13.48;68.99;98113.34;5088774;28;20365;-56
2023/05/20 04:12:00;;;;;;;;;;;;;;;13.48;68.82;98124.25;5113345;27;19921;-56
2023/05/20 04:14:28;;;;;;;;;;;;;;;13.55;68.75;98123.75;5091043;28;19920;-60
2023/05/20 04:16:59;;;;;;;;;;;;;;;13.47;69.28;98122.63;5084735;28;20018;-62
2023/05/20 04:19:28;;;;;;;;;;;;;;;13.46;69.16;98112.84;5086643;28;20250;-56
2023/05/20 04:21:56;;;;;;;;;;;;;;;13.50;69.25;98116.53;5074126;28;19985;-57
2023/05/20 04:24:25;;;;;;;;;;;;;;;13.54;69.11;98116.69;5108130;28;20314;-59
2023/05/20 04:26:53;;;;;;;;;;;;;;;13.43;69.19;98118.97;5088920;28;19965;-57
2023/05/20 04:29:21;;;;;;;;;;;;;;;13.52;69.04;98110.75;5060595;28;19920;-56
2023/05/20 04:31:50;;;;;;;;;;;;;;;13.43;69.23;98104.53;5072836;28;19920;-56
2023/05/20 04:34:25;;;;;;;;;;;;;;;13.44;69.31;98098.72;5063612;28;19920;-57
2023/05/20 04:36:54;;;;;;;;;;;;;;;13.47;69.21;98108.19;5082374;28;19947;-57
2023/05/20 04:39:22;;;;;;;;;;;;;;;13.56;69.13;98115.22;5079064;28;20695;-57
2023/05/20 04:41:53;;;;;;;;;;;;;;;13.48;69.12;98107.88;5072426;28;20324;-58
2023/05/20 04:44:23;;;;;;;;;;;;;;;13.66;68.88;98111.34;5107676;28;19927;-56
2023/05/20 04:46:51;;;;;;;;;;;;;;;13.60;69.19;98115.38;5071256;28;19920;-56
2023/05/20 04:49:20;;;;;;;;;;;;;;;13.80;68.49;98108.41;5097480;28;19920;-57
2023/05/20 04:51:48;;;;;;;;;;;;;;;13.81;68.51;98116.28;5070063;28;20010;-58
2023/05/20 04:54:19;;;;;;;;;;;;;;;13.73;68.56;98125.28;5070471;28;19920;-62
2023/05/20 04:56:47;;;;;;;;;;;;;;;13.71;68.90;98116.63;5070914;28;20326;-59
2023/05/20 04:59:14;;;;;;;;;;;;;;;13.69;68.89;98123.53;5088237;28;21266;-57
2023/05/20 05:01:42;;;;;;;;;;;;;;;13.76;68.90;98119.19;5066145;28;20288;-58
2023/05/20 05:04:11;;;;;;;;;;;;;;;13.80;68.83;98122.88;5064107;28;19920;-57
2023/05/20 05:06:40;;;;;;;;;;;;;;;13.78;68.80;98125.09;5085695;28;20307;-57
2023/05/20 05:09:08;;;;;;;;;;;;;;;13.87;68.42;98116.91;5081370;28;19951;-63
2023/05/20 05:11:39;;;;;;;;;;;;;;;14.06;68.09;98113.75;5079165;28;19956;-57
2023/05/20 05:14:06;;;;;;;;;;;;;;;14.11;67.57;98105.34;5055954;28;19955;-58
2023/05/20 05:16:35;;;;;;;;;;;;;;;14.14;67.50;98108.25;5063349;28;20326;-57
2023/05/20 05:19:02;;;;;;;;;;;;;;;14.25;67.29;98108.66;5066772;28;19964;-57
2023/05/20 05:21:35;;;;;;;;;;;;;;;14.34;67.06;98106.69;5100327;28;20375;-58
2023/05/20 05:24:05;;;;;;;;;;;;;;;14.51;66.53;98103.06;5092699;27;19947;-57
2023/05/20 05:26:32;;;;;;;;;;;;;;;14.54;66.07;98096.94;5104539;28;20367;-57
2023/05/20 05:29:01;;;;;;;;;;;;;;;14.57;66.22;98096.28;5089210;28;19927;-56
2023/05/20 05:31:29;;;;;;;;;;;;;;;14.67;65.89;98093.13;5089158;28;19947;-55
2023/05/20 05:33:57;;;;;;;;;;;;;;;14.65;65.70;98095.41;5094596;28;20280;-57
2023/05/20 05:36:25;;;;;;;;;;;;;;;14.60;65.74;98095.63;5095837;28;20037;-57
2023/05/20 05:38:53;;;;;;;;;;;;;;;14.70;65.67;98090.84;5093005;28;19924;-63
2023/05/20 05:41:24;;;;;;;;;;;;;;;14.77;65.54;98093.88;5106374;27;19950;-58
2023/05/20 05:43:51;;;;;;;;;;;;;;;14.84;65.15;98094.13;5127534;27;20026;-61
2023/05/20 05:46:19;;;;;;;;;;;;;;;14.84;64.75;98085.94;5085746;28;20517;-58
2023/05/20 05:48:49;;;;;;;;;;;;;;;14.91;64.64;98087.00;5083144;28;19920;-57
2023/05/20 05:51:18;;;;;;;;;;;;;;;15.04;64.64;98085.09;5089807;28;19920;-55
2023/05/20 05:53:47;;;;;;;;;;;;;;;15.15;64.23;98086.28;5108697;28;20029;-59
2023/05/20 05:56:15;;;;;;;;;;;;;;;15.10;64.00;98094.72;5107462;28;20273;-55
2023/05/20 05:58:47;;;;;;;;;;;;;;;15.16;63.70;98084.34;5088259;28;19935;-56
2023/05/20 06:01:15;;;;;;;;;;;;;;;15.23;63.53;98092.00;5103274;28;19932;-56
2023/05/20 06:03:43;;;;;;;;;;;;;;;15.46;63.50;98091.28;5085508;28;20003;-56
2023/05/20 06:06:11;;;;;;;;;;;;;;;15.44;62.69;98092.75;5108699;27;19920;-56
2023/05/20 06:08:39;;;;;;;;;;;;;;;15.57;62.32;98083.44;5082875;28;20250;-56
2023/05/20 06:11:08;;;;;;;;;;;;;;;15.57;62.25;98080.69;5079074;28;19991;-56
2023/05/20 06:13:36;;;;;;;;;;;;;;;15.59;62.25;98070.19;5106844;28;20023;-56
2023/05/20 06:16:06;;;;;;;;;;;;;;;15.65;62.19;98079.03;5095200;28;20003;-56
2023/05/20 06:18:34;;;;;;;;;;;;;;;15.71;61.92;98062.03;5088116;28;19931;-56
2023/05/20 06:21:04;;;;;;;;;;;;;;;15.85;61.73;98064.44;5090458;28;19974;-57
2023/05/20 06:23:33;;;;;;;;;;;;;;;16.03;60.68;98061.47;5085103;28;19985;-56
2023/05/20 06:26:04;;;;;;;;;;;;;;;16.11;60.62;98071.50;5085605;28;19941;-56
2023/05/20 06:28:32;;;;;;;;;;;;;;;16.14;59.76;98066.16;5082771;28;20482;-57
2023/05/20 06:31:00;;;;;;;;;;;;;;;16.15;59.57;98067.75;5089957;28;20047;-56
2023/05/20 06:33:33;;;;;;;;;;;;;;;16.09;59.50;98069.13;5102874;28;19981;-56
2023/05/20 06:36:07;;;;;;;;;;;;;;;16.03;59.72;98059.50;5114341;27;19964;-56
2023/05/20 06:38:36;;;;;;;;;;;;;;;16.12;59.63;98071.16;5113214;27;20038;-56
2023/05/20 06:41:06;;;;;;;;;;;;;;;16.16;59.36;98061.13;5117716;27;19934;-56
2023/05/20 06:43:33;;;;;;;;;;;;;;;16.37;58.83;98062.94;5088707;28;19937;-57
2023/05/20 06:46:08;;;;;;;;;;;;;;;16.44;58.86;98063.13;5089479;28;19957;-57
2023/05/20 06:48:47;;;;;;;;;;;;;;;16.54;58.46;98061.84;5094159;28;19958;-56
2023/05/20 06:51:17;;;;;;;;;;;;;;;16.58;58.75;98063.56;5121320;27;20049;-62
2023/05/20 06:53:46;;;;;;;;;;;;;;;16.53;58.29;98054.78;5083801;28;19965;-58
2023/05/20 06:56:15;;;;;;;;;;;;;;;16.56;58.67;98056.81;5080522;28;20424;-58
2023/05/20 06:58:43;;;;;;;;;;;;;;;16.57;57.73;98061.19;5090272;28;20025;-56
2023/05/20 07:01:11;;;;;;;;;;;;;;;16.58;58.06;98052.59;5081539;28;19931;-57
2023/05/20 07:03:41;;;;;;;;;;;;;;;16.65;57.79;98041.03;5105906;28;20021;-57
2023/05/20 07:06:12;;;;;;;;;;;;;;;16.79;57.34;98046.16;5086631;28;19939;-56
2023/05/20 07:08:40;;;;;;;;;;;;;;;16.95;57.62;98052.50;5084908;28;19977;-57
2023/05/20 07:11:08;;;;;;;;;;;;;;;17.03;56.73;98051.53;5089142;28;19957;-57
2023/05/20 07:13:36;;;;;;;;;;;;;;;17.16;56.47;98050.34;5089587;28;20449;-56
2023/05/20 07:16:05;;;;;;;;;;;;;;;17.23;56.14;98050.53;5122676;27;20310;-58
2023/05/20 07:18:34;;;;;;;;;;;;;;;17.42;55.87;98054.56;5092367;28;19988;-57
2023/05/20 07:21:02;;;;;;;;;;;;;;;17.52;55.37;98054.81;5084163;28;20364;-56
2023/05/20 07:23:51;;;;;;;;;;;;;;;17.62;54.35;98047.97;5088652;28;19931;-58
2023/05/20 07:26:19;;;;;;;;;;;;;;;17.64;54.35;98048.44;5074948;28;19973;-58
2023/05/20 07:28:47;;;;;;;;;;;;;;;17.66;54.28;98040.63;5079193;28;19937;-56
2023/05/20 07:31:15;;;;;;;;;;;;;;;17.71;53.96;98032.13;5074191;28;19949;-58
2023/05/20 07:33:44;;;;;;;;;;;;;;;17.79;54.26;98036.69;5082670;28;19941;-56
2023/05/20 07:36:12;;;;;;;;;;;;;;;17.84;53.64;98038.34;5078483;28;20376;-60
2023/05/20 07:38:42;;;;;;;;;;;;;;;17.86;53.79;98043.50;5084270;28;19941;-64
2023/05/20 07:41:25;;;;;;;;;;;;;;;17.98;53.82;98035.16;5062443;28;19931;-59
2023/05/20 07:43:53;;;;;;;;;;;;;;;18.01;53.45;98037.19;5067947;28;19940;-57
2023/05/20 07:46:21;;;;;;;;;;;;;;;18.00;53.29;98041.91;5087131;28;19930;-57
2023/05/20 07:48:51;;;;;;;;;;;;;;;17.87;53.54;98032.16;5086678;28;20276;-58
2023/05/20 07:51:19;;;;;;;;;;;;;;;17.85;53.45;98030.94;5080681;28;20042;-57
2023/05/20 07:53:46;;;;;;;;;;;;;;;17.92;53.45;98031.88;5084114;28;19936;-57
2023/05/20 07:56:14;;;;;;;;;;;;;;;18.01;53.17;98024.25;5070405;28;20364;-57
2023/05/20 07:58:52;;;;;;;;;;;;;;;18.14;53.29;98027.66;5069618;28;19988;-58
2023/05/20 08:01:21;;;;;;;;;;;;;;;18.31;52.65;98021.75;5066494;28;19941;-62
2023/05/20 08:03:49;;;;;;;;;;;;;;;18.39;52.49;98028.22;5073732;28;20371;-57
2023/05/20 08:06:20;;;;;;;;;;;;;;;18.49;52.39;98026.88;5070328;28;20364;-61
2023/05/20 08:08:48;;;;;;;;;;;;;;;18.30;52.46;98020.19;5089543;28;19927;-57
2023/05/20 08:11:25;;;;;;;;;;;;;;;18.26;52.67;98026.75;5067951;28;19946;-57
2023/05/20 08:13:54;;;;;;;;;;;;;;;18.53;52.53;98019.47;5072616;28;20289;-57
2023/05/20 08:16:24;;;;;;;;;;;;;;;18.67;51.50;98017.03;5075585;28;19984;-58
2023/05/20 08:18:52;;;;;;;;;;;;;;;18.79;51.01;98016.91;5069834;28;19957;-57
2023/05/20 08:21:20;;;;;;;;;;;;;;;18.92;50.97;98014.03;5067282;28;19961;-57
2023/05/20 08:23:48;;;;;;;;;;;;;;;19.10;50.70;97999.41;5069418;28;20434;-60
2023/05/20 08:26:17;;;;;;;;;;;;;;;19.18;50.65;98007.81;5070907;28;19982;-60
2023/05/20 08:28:45;;;;;;;;;;;;;;;19.33;49.97;97995.88;5047758;28;20765;-57
2023/05/20 08:31:16;;;;;;;;;;;;;;;19.40;49.63;97996.03;5065307;28;20042;-57
2023/05/20 08:33:45;;;;;;;;;;;;;;;19.41;50.16;98002.31;5053865;28;19984;-60
2023/05/20 08:36:15;;;;;;;;;;;;;;;19.59;49.22;98003.44;5044618;28;20320;-57
2023/05/20 08:38:43;;;;;;;;;;;;;;;19.58;48.80;97999.88;5062576;28;19921;-57
2023/05/20 08:41:12;;;;;;;;;;;;;;;19.65;48.65;97993.69;5049690;28;19938;-56
2023/05/20 08:43:42;;;;;;;;;;;;;;;19.52;49.02;98006.84;5048716;28;19931;-58
2023/05/20 08:46:10;;;;;;;;;;;;;;;19.52;48.90;97992.28;5060965;28;19988;-57
2023/05/20 08:48:40;;;;;;;;;;;;;;;19.63;48.53;97991.31;5052413;28;20275;-56
2023/05/20 08:51:08;;;;;;;;;;;;;;;19.65;48.26;97988.19;5067423;28;19955;-60
2023/05/20 08:53:36;;;;;;;;;;;;;;;19.82;48.09;97989.66;5063932;28;19971;-56
2023/05/20 08:56:04;;;;;;;;;;;;;;;19.91;47.77;97990.16;5067454;28;19981;-56
2023/05/20 08:58:32;;;;;;;;;;;;;;;19.97;47.94;97982.38;5056810;28;19985;-56
2023/05/20 09:01:00;;;;;;;;;;;;;;;19.95;47.85;97984.72;5062840;28;19978;-56
2023/05/20 09:03:29;;;;;;;;;;;;;;;20.04;47.42;97985.25;5064730;28;19982;-58
2023/05/20 09:06:04;;;;;;;;;;;;;;;19.82;47.57;97990.44;5062001;28;19936;-57
2023/05/20 09:08:32;;;;;;;;;;;;;;;19.98;47.47;97989.50;5066484;28;20344;-57
2023/05/20 09:11:00;;;;;;;;;;;;;;;20.10;47.71;97987.31;5064396;28;19982;-57
2023/05/20 09:13:29;;;;;;;;;;;;;;;20.08;47.09;97983.31;5071164;28;19924;-55
2023/05/20 09:15:59;;;;;;;;;;;;;;;20.15;47.15;97988.97;5068361;28;19920;-58
2023/05/20 09:18:28;;;;;;;;;;;;;;;19.95;47.33;97981.97;5063479;28;19989;-57
2023/05/20 09:20:55;;;;;;;;;;;;;;;19.98;47.99;97995.00;5058336;28;19982;-56
2023/05/20 09:23:26;;;;;;;;;;;;;;;19.88;47.77;97991.72;5083695;28;19954;-57
2023/05/20 09:25:54;;;;;;;;;;;;;;;19.79;48.19;97988.41;5087268;28;20022;-58
2023/05/20 09:28:23;;;;;;;;;;;;;;;19.82;47.94;97986.91;5085057;28;19974;-57
2023/05/20 09:30:56;;;;;;;;;;;;;;;20.06;47.61;97999.44;5080801;28;20357;-58
2023/05/20 09:33:27;;;;;;;;;;;;;;;20.05;47.19;97995.13;5083447;28;20392;-57
2023/05/20 09:36:00;;;;;;;;;;;;;;;19.98;47.57;98000.53;5077506;28;19930;-56
2023/05/20 09:38:34;;;;;;;;;;;;;;;20.26;47.54;97991.88;5084080;28;20374;-64
2023/05/20 09:41:03;;;;;;;;;;;;;;;20.25;47.32;97987.53;5083930;28;20071;-57
2023/05/20 09:43:31;;;;;;;;;;;;;;;20.21;47.39;97984.69;5089166;28;19969;-64
2023/05/20 09:45:59;;;;;;;;;;;;;;;20.31;47.70;97991.53;5082888;28;20025;-57
2023/05/20 09:48:27;;;;;;;;;;;;;;;20.56;47.20;97987.19;5080679;28;20184;-57
2023/05/20 09:50:56;;;;;;;;;;;;;;;20.55;46.36;97974.53;5086424;28;20005;-57
2023/05/20 09:53:25;;;;;;;;;;;;;;;20.44;47.26;97986.56;5085313;28;20003;-58
2023/05/20 09:55:54;;;;;;;;;;;;;;;20.28;46.75;97981.25;5086396;28;20361;-61
2023/05/20 09:58:22;;;;;;;;;;;;;;;20.25;47.60;97969.00;5081102;28;19970;-58
2023/05/20 10:00:50;;;;;;;;;;;;;;;20.12;47.79;97970.38;5081631;28;20682;-57
2023/05/20 10:03:19;;;;;;;;;;;;;;;19.92;47.75;97971.66;5080532;28;20448;-57
2023/05/20 10:05:48;;;;;;;;;;;;;;;19.95;48.20;97968.97;5082862;28;20264;-56
2023/05/20 10:08:29;;;;;;;;;;;;;;;20.16;47.99;97968.47;5082505;28;19927;-57
2023/05/20 10:11:01;;;;;;;;;;;;;;;20.35;47.80;97959.28;5083955;28;19920;-58
2023/05/20 10:13:38;;;;;;;;;;;;;;;20.53;47.65;97967.81;5085393;28;20369;-57
2023/05/20 10:16:10;;;;;;;;;;;;;;;20.43;47.04;97958.19;5101663;28;20459;-57
2023/05/20 10:18:41;;;;;;;;;;;;;;;20.62;46.93;97960.03;5084624;28;19994;-56
2023/05/20 10:21:14;;;;;;;;;;;;;;;20.57;46.50;97963.13;5088161;28;19962;-57
2023/05/20 10:23:42;;;;;;;;;;;;;;;20.37;47.46;97952.19;5087153;28;20012;-57
2023/05/20 10:26:11;;;;;;;;;;;;;;;20.54;46.78;97942.59;5091271;28;19960;-57
2023/05/20 10:28:40;;;;;;;;;;;;;;;20.88;46.41;97942.59;5083126;28;19962;-56
2023/05/20 10:31:15;;;;;;;;;;;;;;;20.94;45.71;97952.09;5089277;28;19977;-58
2023/05/20 10:33:43;;;;;;;;;;;;;;;21.14;46.96;97952.69;5091583;28;20611;-56
2023/05/20 10:36:21;;;;;;;;;;;;;;;21.15;45.12;97946.78;5084143;28;19930;-56
2023/05/20 10:38:51;;;;;;;;;;;;;;;21.10;44.81;97938.06;5091265;28;19941;-56
2023/05/20 10:41:21;;;;;;;;;;;;;;;21.05;45.15;97935.66;5089534;28;20421;-57
2023/05/20 10:43:59;;;;;;;;;;;;;;;20.99;45.33;97937.16;5102370;28;19993;-58
2023/05/20 10:46:27;;;;;;;;;;;;;;;20.84;45.20;97937.00;5087282;28;19965;-59
2023/05/20 10:49:04;;;;;;;;;;;;;;;20.73;46.19;97925.06;5085052;28;19955;-55
2023/05/20 10:51:35;;;;;;;;;;;;;;;20.73;46.06;97938.88;5094129;28;19947;-55
2023/05/20 10:54:03;;;;;;;;;;;;;;;20.85;46.86;97932.28;5092717;28;19945;-57
2023/05/20 10:56:32;;;;;;;;;;;;;;;20.97;46.05;97937.53;5110770;28;19981;-56
2023/05/20 10:59:01;;;;;;;;;;;;;;;20.94;46.07;97938.31;5083972;28;19938;-56
2023/05/20 11:01:29;;;;;;;;;;;;;;;20.83;46.21;97931.88;5095838;27;19934;-61
2023/05/20 11:03:57;;;;;;;;;;;;;;;20.82;47.54;97933.81;5091685;28;19935;-56
2023/05/20 11:06:25;;;;;;;;;;;;;;;20.92;46.57;97933.13;5086774;28;19931;-56
2023/05/20 11:08:53;;;;;;;;;;;;;;;21.05;46.55;97930.91;5087392;28;19934;-56
2023/05/20 11:11:22;;;;;;;;;;;;;;;21.19;45.99;97919.97;5091696;28;19941;-56
2023/05/20 11:13:56;;;;;;;;;;;;;;;21.14;45.27;97922.28;5094607;27;19931;-57
2023/05/20 11:16:25;;;;;;;;;;;;;;;21.09;45.63;97914.34;5087192;28;20371;-59
2023/05/20 11:18:53;;;;;;;;;;;;;;;21.02;45.48;97911.53;5090517;28;19932;-56
2023/05/20 11:21:23;;;;;;;;;;;;;;;20.88;46.02;97915.75;5083593;28;19978;-56
2023/05/20 11:23:51;;;;;;;;;;;;;;;21.11;46.75;97907.28;5093649;28;19962;-57
2023/05/20 11:26:22;;;;;;;;;;;;;;;21.19;45.42;97903.41;5086128;28;19934;-56
2023/05/20 11:28:50;;;;;;;;;;;;;;;21.32;45.39;97898.41;5085279;28;20005;-56
2023/05/20 11:31:20;;;;;;;;;;;;;;;21.44;45.76;97908.38;5088381;28;19931;-56
2023/05/20 11:33:48;;;;;;;;;;;;;;;21.25;45.88;97898.31;5091673;28;19980;-56
2023/05/20 11:36:15;;;;;;;;;;;;;;;21.26;46.25;97899.94;5091175;28;19930;-58
2023/05/20 11:38:54;;;;;;;;;;;;;;;21.18;45.85;97912.06;5086014;28;20344;-58
2023/05/20 11:41:23;;;;;;;;;;;;;;;21.38;46.24;97907.94;5087069;28;19985;-56
2023/05/20 11:43:55;;;;;;;;;;;;;;;21.58;45.88;97894.66;5091433;28;19939;-60
2023/05/20 11:46:24;;;;;;;;;;;;;;;21.68;45.10;97891.19;5085413;28;19935;-57
2023/05/20 11:48:53;;;;;;;;;;;;;;;21.64;44.26;97895.09;5094582;28;19934;-56
2023/05/20 11:51:25;;;;;;;;;;;;;;;21.50;44.90;97879.19;5083813;28;19939;-56
2023/05/20 11:53:53;;;;;;;;;;;;;;;21.67;46.47;97889.56;5093304;28;20122;-55
2023/05/20 11:56:21;;;;;;;;;;;;;;;21.63;44.46;97883.25;5088933;28;20056;-59
2023/05/20 11:58:49;;;;;;;;;;;;;;;21.68;44.99;97888.41;5081213;28;19980;-57
2023/05/20 12:01:16;;;;;;;;;;;;;;;21.82;45.34;97884.13;5082996;28;19931;-56
2023/05/20 12:03:51;;;;;;;;;;;;;;;21.78;45.01;97889.63;5089451;28;20381;-57
2023/05/20 12:06:19;;;;;;;;;;;;;;;21.86;44.66;97896.03;5088391;28;20041;-57
2023/05/20 12:08:49;;;;;;;;;;;;;;;22.00;44.13;97896.13;5108387;28;20261;-56
2023/05/20 12:11:22;;;;;;;;;;;;;;;22.23;44.33;97906.91;5090120;28;19930;-58
2023/05/20 12:13:50;;;;;;;;;;;;;;;22.23;44.52;97902.19;5087303;28;20542;-64
2023/05/20 12:16:18;;;;;;;;;;;;;;;22.17;44.20;97894.66;5092726;28;19935;-56
2023/05/20 12:18:46;;;;;;;;;;;;;;;22.24;44.11;97900.19;5085141;28;20287;-60
2023/05/20 12:21:15;;;;;;;;;;;;;;;22.24;43.99;97889.13;5100935;28;20275;-56
2023/05/20 12:23:43;;;;;;;;;;;;;;;22.38;44.00;97883.66;5093422;28;20423;-61
2023/05/20 12:26:11;;;;;;;;;;;;;;;22.46;44.27;97879.72;5093984;28;20284;-56
2023/05/20 12:28:39;;;;;;;;;;;;;;;22.35;43.56;97883.63;5090063;28;19939;-60
2023/05/20 12:31:06;;;;;;;;;;;;;;;22.19;43.90;97889.50;5088149;28;19942;-57
2023/05/20 12:33:34;;;;;;;;;;;;;;;22.13;44.10;97882.75;5090772;28;19942;-57
2023/05/20 12:36:02;;;;;;;;;;;;;;;22.12;44.61;97884.72;5086696;28;19980;-56
2023/05/20 12:38:32;;;;;;;;;;;;;;;22.23;44.34;97884.78;5121226;27;19937;-56
2023/05/20 12:41:00;;;;;;;;;;;;;;;22.33;44.89;97886.81;5085205;28;19931;-56
2023/05/20 12:43:28;;;;;;;;;;;;;;;22.41;45.24;97882.84;5091727;28;19938;-60
2023/05/20 12:45:56;;;;;;;;;;;;;;;22.46;44.14;97882.47;5105184;28;19938;-60
2023/05/20 12:48:24;;;;;;;;;;;;;;;22.43;44.06;97885.25;5089104;28;19930;-67
2023/05/20 12:50:51;;;;;;;;;;;;;;;22.47;44.59;97874.97;5097276;28;19938;-57
2023/05/20 12:53:19;;;;;;;;;;;;;;;22.37;44.58;97882.06;5089196;28;19943;-56
2023/05/20 12:55:48;;;;;;;;;;;;;;;22.33;43.69;97872.19;5088027;28;19938;-59
2023/05/20 12:58:16;;;;;;;;;;;;;;;22.31;43.85;97872.53;5127607;27;19943;-61